Loughman, Florida
Current Conditions -  °F | °C
As of 10:50 AM on Saturday 20 Dec 2014 (Local Time) from KISM Reporting Station
Clear Clear  
Wind Chill: 72°   Ceiling: Unl
Heat Index: 72°   Visibility: 10mi
Dew Point: 61°   Wind: 3mph
Humidity: 69%   Direction: 200°SSW
Pressure: 30.14"   Gusts: NA
Location:  28.24°N, 81.57°W
Report Text: KISM 201550Z 20003KT 10SM SKC 22/16 A3014
Loading
Personal Weather Stations






























Interactive Weather Map New forecast layout! Learn more

10-Day Weather Forecast

Advertisements
Track Severe Weather on mobile